Hauptseite
METAR-TAF:

METAR-TAF

Flughäfen :

Oruro, Bolivien

Breite: 17-58S, Länge: 067-04W, Höhe: 3072 m

Beobachtung

Neuester Wetterbericht von vor 9 Stunden und 32 Minuten, um 01:00 UTC
Wind 10 kt aus Nord
Temperatur 7°C
Luftfeuchtigkeit 53%
Luftdruck 1033 hPa
Sichtweite 10 km oder mehr

METAR: SLOR 220100Z 36010KT 9999 NSC 07/M02 Q1033

Zeit: 06:32 (10:32 UTC)


TAF: fehlend

Wetterbeobachtungen und Prognosen von mehr als 4000 Flughäfen (METAR und TAF Bericht).

Die verfügbaren Stationen werden durch gelbe und rote Markierungen auf der Karte dargestellt.

Führen Sie die Maus auf sie, um den Namen der Station zu sehen.

Darauf klicken, um die Beobachtung von Wetterbeobachtungen und Prognosen zu sehen.

Um die Karte zu ändern : klicken Sie auf den grünen Tasten mit einem schwarzen Kreuz Zum Vergrößern, auf den grünen Button mit einem Gedankenstrich zu verkleinern, oder auf die grünen Pfeile für benachbarte Karten.


METAR-TAF: